sensor_id;sensor_type;location;lat;lon;timestamp;pressure;altitude;pressure_sealevel;temperature;humidity
60437;BME280;46289;51.992;4.498;2023-04-27T00:00:30;102354.47;;;3.31;80.30
60437;BME280;46289;51.992;4.498;2023-04-27T00:02:37;102358.75;;;3.29;79.99
60437;BME280;46289;51.992;4.498;2023-04-27T00:04:43;102354.41;;;3.28;79.09
60437;BME280;46289;51.992;4.498;2023-04-27T00:06:51;102357.88;;;3.27;79.12
60437;BME280;46289;51.992;4.498;2023-04-27T00:08:56;102359.53;;;3.22;79.52
60437;BME280;46289;51.992;4.498;2023-04-27T00:11:01;102351.72;;;3.19;79.75
60437;BME280;46289;51.992;4.498;2023-04-27T00:13:07;102349.97;;;3.19;81.50
60437;BME280;46289;51.992;4.498;2023-04-27T00:15:12;102355.97;;;3.14;79.42
60437;BME280;46289;51.992;4.498;2023-04-27T00:17:20;102348.16;;;3.15;80.65
60437;BME280;46289;51.992;4.498;2023-04-27T00:19:27;102349.81;;;3.08;81.28
60437;BME280;46289;51.992;4.498;2023-04-27T00:21:32;102352.41;;;3.08;79.92
60437;BME280;46289;51.992;4.498;2023-04-27T00:23:38;102348.88;;;3.05;79.84
60437;BME280;46289;51.992;4.498;2023-04-27T00:25:43;102351.44;;;3.00;80.73
60437;BME280;46289;51.992;4.498;2023-04-27T00:27:48;102360.81;;;2.92;80.39
60437;BME280;46289;51.992;4.498;2023-04-27T00:29:53;102358.22;;;2.91;80.38
60437;BME280;46289;51.992;4.498;2023-04-27T00:31:58;102352.94;;;2.86;81.82
60437;BME280;46289;51.992;4.498;2023-04-27T00:34:03;102354.59;;;2.81;81.93
60437;BME280;46289;51.992;4.498;2023-04-27T00:36:10;102347.56;;;2.75;82.11
60437;BME280;46289;51.992;4.498;2023-04-27T00:38:15;102347.50;;;2.71;81.68
60437;BME280;46289;51.992;4.498;2023-04-27T00:40:20;102350.94;;;2.71;81.58
60437;BME280;46289;51.992;4.498;2023-04-27T00:42:25;102346.63;;;2.70;81.86
60437;BME280;46289;51.992;4.498;2023-04-27T00:44:30;102337.84;;;2.62;82.34
60437;BME280;46289;51.992;4.498;2023-04-27T00:46:35;102335.28;;;2.63;81.28
60437;BME280;46289;51.992;4.498;2023-04-27T00:48:41;102336.16;;;2.64;81.40
60437;BME280;46289;51.992;4.498;2023-04-27T00:50:46;102339.63;;;2.64;81.46
60437;BME280;46289;51.992;4.498;2023-04-27T00:52:54;102336.16;;;2.64;83.07
60437;BME280;46289;51.992;4.498;2023-04-27T00:55:01;102332.66;;;2.62;83.63
60437;BME280;46289;51.992;4.498;2023-04-27T00:57:08;102331.75;;;2.58;82.46
60437;BME280;46289;51.992;4.498;2023-04-27T00:59:13;102337.81;;;2.60;82.20
60437;BME280;46289;51.992;4.498;2023-04-27T01:01:18;102337.84;;;2.62;82.36
60437;BME280;46289;51.992;4.498;2023-04-27T01:03:24;102336.03;;;2.56;83.22
60437;BME280;46289;51.992;4.498;2023-04-27T01:05:30;102335.97;;;2.55;83.61
60437;BME280;46289;51.992;4.498;2023-04-27T01:07:39;102344.59;;;2.51;83.62
60437;BME280;46289;51.992;4.498;2023-04-27T01:09:46;102341.03;;;2.46;84.61
60437;BME280;46289;51.992;4.498;2023-04-27T01:11:52;102340.09;;;2.40;84.10
60437;BME280;46289;51.992;4.498;2023-04-27T01:13:56;102333.13;;;2.38;83.95
60437;BME280;46289;51.992;4.498;2023-04-27T01:16:02;102335.66;;;2.36;84.96
60437;BME280;46289;51.992;4.498;2023-04-27T01:18:08;102328.69;;;2.32;84.90
60437;BME280;46289;51.992;4.498;2023-04-27T01:20:13;102328.66;;;2.29;84.65
60437;BME280;46289;51.992;4.498;2023-04-27T01:22:18;102327.75;;;2.29;83.74
60437;BME280;46289;51.992;4.498;2023-04-27T01:24:26;102322.56;;;2.29;86.03
60437;BME280;46289;51.992;4.498;2023-04-27T01:26:31;102314.72;;;2.24;85.74
60437;BME280;46289;51.992;4.498;2023-04-27T01:28:37;102314.72;;;2.24;84.60
60437;BME280;46289;51.992;4.498;2023-04-27T01:30:42;102307.81;;;2.25;83.85
60437;BME280;46289;51.992;4.498;2023-04-27T01:32:47;102307.81;;;2.26;83.61
60437;BME280;46289;51.992;4.498;2023-04-27T01:34:54;102315.59;;;2.25;84.37
60437;BME280;46289;51.992;4.498;2023-04-27T01:36:59;102308.59;;;2.20;84.02
60437;BME280;46289;51.992;4.498;2023-04-27T01:39:04;102314.59;;;2.18;84.04
60437;BME280;46289;51.992;4.498;2023-04-27T01:41:13;102311.97;;;2.15;84.67
60437;BME280;46289;51.992;4.498;2023-04-27T01:43:21;102311.91;;;2.12;83.90
60437;BME280;46289;51.992;4.498;2023-04-27T01:45:26;102311.88;;;2.10;85.24
60437;BME280;46289;51.992;4.498;2023-04-27T01:47:31;102309.34;;;2.13;85.19
60437;BME280;46289;51.992;4.498;2023-04-27T01:49:36;102313.50;;;2.05;84.85
60437;BME280;46289;51.992;4.498;2023-04-27T01:51:42;102312.59;;;2.02;85.48
60437;BME280;46289;51.992;4.498;2023-04-27T01:53:50;102310.84;;;2.01;85.61
60437;BME280;46289;51.992;4.498;2023-04-27T01:55:55;102315.22;;;2.03;85.83
60437;BME280;46289;51.992;4.498;2023-04-27T01:58:03;102317.72;;;2.00;86.61
60437;BME280;46289;51.992;4.498;2023-04-27T02:00:10;102314.25;;;1.98;87.22
60437;BME280;46289;51.992;4.498;2023-04-27T02:02:15;102305.56;;;1.96;86.45
60437;BME280;46289;51.992;4.498;2023-04-27T02:04:20;102311.59;;;1.95;85.68
60437;BME280;46289;51.992;4.498;2023-04-27T02:06:26;102304.75;;;1.98;87.90
60437;BME280;46289;51.992;4.498;2023-04-27T02:08:33;102303.88;;;1.98;87.52
60437;BME280;46289;51.992;4.498;2023-04-27T02:10:39;102296.09;;;1.98;87.44
60437;BME280;46289;51.992;4.498;2023-04-27T02:12:44;102300.34;;;1.94;86.83
60437;BME280;46289;51.992;4.498;2023-04-27T02:14:54;102301.28;;;1.98;86.98
60437;BME280;46289;51.992;4.498;2023-04-27T02:16:59;102296.16;;;2.01;86.48
60437;BME280;46289;51.992;4.498;2023-04-27T02:19:04;102294.53;;;2.06;86.97
60437;BME280;46289;51.992;4.498;2023-04-27T02:21:10;102285.06;;;2.10;86.33
60437;BME280;46289;51.992;4.498;2023-04-27T02:23:15;102290.38;;;2.16;87.04
60437;BME280;46289;51.992;4.498;2023-04-27T02:25:20;102290.63;;;2.30;87.42
60437;BME280;46289;51.992;4.498;2023-04-27T02:27:25;102300.13;;;2.31;86.58
60437;BME280;46289;51.992;4.498;2023-04-27T02:29:31;102284.66;;;2.35;86.76
60437;BME280;46289;51.992;4.498;2023-04-27T02:31:43;102290.75;;;2.39;86.69
60437;BME280;46289;51.992;4.498;2023-04-27T02:33:49;102289.97;;;2.43;86.62
60437;BME280;46289;51.992;4.498;2023-04-27T02:35:54;102292.66;;;2.48;86.44
60437;BME280;46289;51.992;4.498;2023-04-27T02:38:01;102290.06;;;2.49;86.68
60437;BME280;46289;51.992;4.498;2023-04-27T02:40:08;102285.84;;;2.57;86.74
60437;BME280;46289;51.992;4.498;2023-04-27T02:42:13;102283.31;;;2.60;86.41
60437;BME280;46289;51.992;4.498;2023-04-27T02:44:21;102289.31;;;2.58;86.46
60437;BME280;46289;51.992;4.498;2023-04-27T02:46:27;102287.72;;;2.64;86.98
60437;BME280;46289;51.992;4.498;2023-04-27T02:48:35;102285.97;;;2.65;86.30
60437;BME280;46289;51.992;4.498;2023-04-27T02:50:40;102299.03;;;2.70;86.62
60437;BME280;46289;51.992;4.498;2023-04-27T02:52:45;102289.47;;;2.67;86.61
60437;BME280;46289;51.992;4.498;2023-04-27T02:54:52;102296.41;;;2.67;86.14
60437;BME280;46289;51.992;4.498;2023-04-27T02:56:58;102285.13;;;2.64;86.33
60437;BME280;46289;51.992;4.498;2023-04-27T02:59:04;102292.91;;;2.64;86.51
60437;BME280;46289;51.992;4.498;2023-04-27T03:01:09;102299.75;;;2.59;86.48
60437;BME280;46289;51.992;4.498;2023-04-27T03:03:16;102294.41;;;2.52;86.05
60437;BME280;46289;51.992;4.498;2023-04-27T03:05:24;102297.84;;;2.48;86.48
60437;BME280;46289;51.992;4.498;2023-04-27T03:07:30;102294.28;;;2.44;86.46
60437;BME280;46289;51.992;4.498;2023-04-27T03:09:34;102296.84;;;2.41;86.59
60437;BME280;46289;51.992;4.498;2023-04-27T03:11:39;102295.06;;;2.38;86.59
60437;BME280;46289;51.992;4.498;2023-04-27T03:13:46;102295.09;;;2.40;86.74
60437;BME280;46289;51.992;4.498;2023-04-27T03:15:53;102291.75;;;2.46;86.33
60437;BME280;46289;51.992;4.498;2023-04-27T03:17:58;102291.81;;;2.50;86.84
60437;BME280;46289;51.992;4.498;2023-04-27T03:20:04;102300.47;;;2.51;86.30
60437;BME280;46289;51.992;4.498;2023-04-27T03:22:13;102301.28;;;2.48;86.18
60437;BME280;46289;51.992;4.498;2023-04-27T03:24:20;102297.84;;;2.49;86.33
60437;BME280;46289;51.992;4.498;2023-04-27T03:26:26;102310.81;;;2.49;86.43
60437;BME280;46289;51.992;4.498;2023-04-27T03:28:31;102302.25;;;2.53;86.17
60437;BME280;46289;51.992;4.498;2023-04-27T03:30:38;102303.13;;;2.55;86.16
60437;BME280;46289;51.992;4.498;2023-04-27T03:32:44;102306.63;;;2.57;86.36
60437;BME280;46289;51.992;4.498;2023-04-27T03:34:50;102301.47;;;2.60;85.92
60437;BME280;46289;51.992;4.498;2023-04-27T03:36:54;102299.78;;;2.61;86.03
60437;BME280;46289;51.992;4.498;2023-04-27T03:39:02;102305.78;;;2.58;85.79
60437;BME280;46289;51.992;4.498;2023-04-27T03:41:07;102297.09;;;2.56;85.69
60437;BME280;46289;51.992;4.498;2023-04-27T03:43:13;102298.78;;;2.54;86.11
60437;BME280;46289;51.992;4.498;2023-04-27T03:45:19;102302.16;;;2.49;85.93
60437;BME280;46289;51.992;4.498;2023-04-27T03:47:25;102304.63;;;2.41;85.83
60437;BME280;46289;51.992;4.498;2023-04-27T03:49:30;102306.31;;;2.37;86.28
60437;BME280;46289;51.992;4.498;2023-04-27T03:51:35;102307.13;;;2.35;86.36
60437;BME280;46289;51.992;4.498;2023-04-27T03:53:43;102306.19;;;2.30;86.42
60437;BME280;46289;51.992;4.498;2023-04-27T03:55:52;102311.38;;;2.30;86.26
60437;BME280;46289;51.992;4.498;2023-04-27T03:57:56;102307.09;;;2.32;86.27
60437;BME280;46289;51.992;4.498;2023-04-27T04:00:02;102311.56;;;2.42;86.29
60437;BME280;46289;51.992;4.498;2023-04-27T04:02:12;102314.22;;;2.45;86.09
60437;BME280;46289;51.992;4.498;2023-04-27T04:04:19;102313.41;;;2.48;85.60
60437;BME280;46289;51.992;4.498;2023-04-27T04:06:25;102317.59;;;2.41;85.57
60437;BME280;46289;51.992;4.498;2023-04-27T04:08:29;102317.56;;;2.38;86.02
60437;BME280;46289;51.992;4.498;2023-04-27T04:10:37;102325.28;;;2.36;85.93
60437;BME280;46289;51.992;4.498;2023-04-27T04:12:45;102323.47;;;2.29;85.78
60437;BME280;46289;51.992;4.498;2023-04-27T04:14:50;102319.09;;;2.27;85.91
60437;BME280;46289;51.992;4.498;2023-04-27T04:16:58;102325.91;;;2.22;85.91
60437;BME280;46289;51.992;4.498;2023-04-27T04:19:03;102319.84;;;2.21;85.90
60437;BME280;46289;51.992;4.498;2023-04-27T04:21:09;102324.16;;;2.20;86.24
60437;BME280;46289;51.992;4.498;2023-04-27T04:23:14;102325.88;;;2.20;85.94
60437;BME280;46289;51.992;4.498;2023-04-27T04:25:21;102320.72;;;2.22;85.93
60437;BME280;46289;51.992;4.498;2023-04-27T04:27:27;102325.91;;;2.22;86.30
60437;BME280;46289;51.992;4.498;2023-04-27T04:29:36;102324.16;;;2.20;86.21
60437;BME280;46289;51.992;4.498;2023-04-27T04:31:43;102331.16;;;2.26;86.44
60437;BME280;46289;51.992;4.498;2023-04-27T04:33:52;102327.69;;;2.24;86.46
60437;BME280;46289;51.992;4.498;2023-04-27T04:35:57;102328.56;;;2.26;86.34
60437;BME280;46289;51.992;4.498;2023-04-27T04:38:03;102329.47;;;2.27;86.31
60437;BME280;46289;51.992;4.498;2023-04-27T04:40:09;102337.25;;;2.28;86.32
60437;BME280;46289;51.992;4.498;2023-04-27T04:42:14;102332.94;;;2.29;85.92
60437;BME280;46289;51.992;4.498;2023-04-27T04:44:19;102334.72;;;2.31;86.32
60437;BME280;46289;51.992;4.498;2023-04-27T04:46:27;102337.34;;;2.33;86.02
60437;BME280;46289;51.992;4.498;2023-04-27T04:48:33;102344.28;;;2.34;86.04
60437;BME280;46289;51.992;4.498;2023-04-27T04:50:41;102346.09;;;2.39;85.90
60437;BME280;46289;51.992;4.498;2023-04-27T04:52:46;102347.88;;;2.40;85.82
60437;BME280;46289;51.992;4.498;2023-04-27T04:54:51;102346.19;;;2.44;85.64
60437;BME280;46289;51.992;4.498;2023-04-27T04:56:56;102334.97;;;2.47;85.41
60437;BME280;46289;51.992;4.498;2023-04-27T04:59:03;102343.63;;;2.47;85.44
60437;BME280;46289;51.992;4.498;2023-04-27T05:01:08;102333.47;;;2.59;85.24
60437;BME280;46289;51.992;4.498;2023-04-27T05:03:19;102343.00;;;2.60;85.11
60437;BME280;46289;51.992;4.498;2023-04-27T05:05:26;102345.72;;;2.68;85.19
60437;BME280;46289;51.992;4.498;2023-04-27T05:07:32;102336.28;;;2.72;85.06
60437;BME280;46289;51.992;4.498;2023-04-27T05:09:37;102337.97;;;2.71;84.92
60437;BME280;46289;51.992;4.498;2023-04-27T05:11:42;102345.84;;;2.76;84.99
60437;BME280;46289;51.992;4.498;2023-04-27T05:13:48;102354.59;;;2.81;84.66
60437;BME280;46289;51.992;4.498;2023-04-27T05:15:54;102352.16;;;2.92;84.33
60437;BME280;46289;51.992;4.498;2023-04-27T05:18:00;102351.38;;;2.97;84.16
60437;BME280;46289;51.992;4.498;2023-04-27T05:20:08;102353.25;;;3.07;83.89
60437;BME280;46289;51.992;4.498;2023-04-27T05:22:15;102350.06;;;3.24;83.15
60437;BME280;46289;51.992;4.498;2023-04-27T05:24:23;102354.56;;;3.39;82.85
60437;BME280;46289;51.992;4.498;2023-04-27T05:26:28;102349.53;;;3.52;82.18
60437;BME280;46289;51.992;4.498;2023-04-27T05:28:33;102357.41;;;3.56;82.38
60437;BME280;46289;51.992;4.498;2023-04-27T05:30:38;102357.44;;;3.59;81.50
60437;BME280;46289;51.992;4.498;2023-04-27T05:32:43;102354.97;;;3.71;81.83
60437;BME280;46289;51.992;4.498;2023-04-27T05:34:49;102352.38;;;3.71;81.53
60437;BME280;46289;51.992;4.498;2023-04-27T05:36:59;102353.38;;;3.81;81.43
60437;BME280;46289;51.992;4.498;2023-04-27T05:39:04;102353.50;;;3.93;81.52
60437;BME280;46289;51.992;4.498;2023-04-27T05:41:13;102358.88;;;4.08;80.91
60437;BME280;46289;51.992;4.498;2023-04-27T05:43:18;102356.44;;;4.25;80.35
60437;BME280;46289;51.992;4.498;2023-04-27T05:45:24;102353.09;;;4.37;80.10
60437;BME280;46289;51.992;4.498;2023-04-27T05:47:29;102351.44;;;4.47;79.48
60437;BME280;46289;51.992;4.498;2023-04-27T05:49:34;102360.41;;;4.81;78.99
60437;BME280;46289;51.992;4.498;2023-04-27T05:51:39;102354.56;;;5.13;78.62
60437;BME280;46289;51.992;4.498;2023-04-27T05:53:49;102359.06;;;5.38;77.36
60437;BME280;46289;51.992;4.498;2023-04-27T05:55:56;102364.41;;;5.70;76.61
60437;BME280;46289;51.992;4.498;2023-04-27T05:58:02;102360.13;;;5.89;75.64
60437;BME280;46289;51.992;4.498;2023-04-27T06:00:11;102353.28;;;6.13;75.51
60437;BME280;46289;51.992;4.498;2023-04-27T06:02:22;102356.81;;;6.33;74.39
60437;BME280;46289;51.992;4.498;2023-04-27T06:04:37;102360.28;;;6.35;71.92
60437;BME280;46289;51.992;4.498;2023-04-27T06:06:44;102361.19;;;6.64;72.01
60437;BME280;46289;51.992;4.498;2023-04-27T06:09:00;102364.63;;;7.02;72.17
60437;BME280;46289;51.992;4.498;2023-04-27T06:11:11;102355.06;;;7.06;70.45
60437;BME280;46289;51.992;4.498;2023-04-27T06:13:22;102362.88;;;7.24;70.51
60437;BME280;46289;51.992;4.498;2023-04-27T06:15:28;102360.28;;;7.11;68.49
60437;BME280;46289;51.992;4.498;2023-04-27T06:17:34;102364.59;;;7.35;68.88
60437;BME280;46289;51.992;4.498;2023-04-27T06:19:44;102361.09;;;7.34;68.12
60437;BME280;46289;51.992;4.498;2023-04-27T06:21:52;102364.56;;;7.45;66.48
60437;BME280;46289;51.992;4.498;2023-04-27T06:24:03;102358.34;;;7.71;66.65
60437;BME280;46289;51.992;4.498;2023-04-27T06:26:09;102352.09;;;8.03;65.00
60437;BME280;46289;51.992;4.498;2023-04-27T06:28:15;102346.97;;;7.81;63.91
60437;BME280;46289;51.992;4.498;2023-04-27T06:30:32;102343.41;;;8.01;64.02
60437;BME280;46289;51.992;4.498;2023-04-27T06:32:43;102348.59;;;8.04;62.18
60437;BME280;46289;51.992;4.498;2023-04-27T06:34:53;102345.25;;;7.80;62.23
60437;BME280;46289;51.992;4.498;2023-04-27T06:37:06;102338.94;;;8.15;61.44
60437;BME280;46289;51.992;4.498;2023-04-27T06:39:15;102336.38;;;8.09;60.77
60437;BME280;46289;51.992;4.498;2023-04-27T06:41:26;102337.31;;;7.94;60.10
60437;BME280;46289;51.992;4.498;2023-04-27T06:43:34;102346.72;;;8.26;60.39
60437;BME280;46289;51.992;4.498;2023-04-27T06:45:41;102343.25;;;8.22;59.16
60437;BME280;46289;51.992;4.498;2023-04-27T06:47:54;102337.94;;;8.41;58.81
60437;BME280;46289;51.992;4.498;2023-04-27T06:50:01;102343.25;;;8.27;58.46
60437;BME280;46289;51.992;4.498;2023-04-27T06:52:10;102354.34;;;8.64;57.46
60437;BME280;46289;51.992;4.498;2023-04-27T06:54:32;102344.78;;;8.57;57.78
60437;BME280;46289;51.992;4.498;2023-04-27T06:56:44;102346.38;;;8.75;57.57
60437;BME280;46289;51.992;4.498;2023-04-27T06:59:03;102344.78;;;8.55;57.21
60437;BME280;46289;51.992;4.498;2023-04-27T07:01:14;102353.28;;;8.84;56.95
60437;BME280;46289;51.992;4.498;2023-04-27T07:03:23;102349.41;;;9.23;56.24
60437;BME280;46289;51.992;4.498;2023-04-27T07:05:33;102355.69;;;9.05;56.05
60437;BME280;46289;51.992;4.498;2023-04-27T07:07:43;102352.31;;;8.94;55.48
60437;BME280;46289;51.992;4.498;2023-04-27T07:09:56;102342.63;;;9.02;55.76
60437;BME280;46289;51.992;4.498;2023-04-27T07:12:04;102345.22;;;9.05;54.72
60437;BME280;46289;51.992;4.498;2023-04-27T07:14:12;102345.28;;;8.97;54.52
60437;BME280;46289;51.992;4.498;2023-04-27T07:16:29;102341.34;;;9.41;53.84
60437;BME280;46289;51.992;4.498;2023-04-27T07:18:43;102343.69;;;9.64;53.02
60437;BME280;46289;51.992;4.498;2023-04-27T07:20:56;102342.09;;;9.51;54.08
60437;BME280;46289;51.992;4.498;2023-04-27T07:23:03;102336.47;;;9.80;53.00
60437;BME280;46289;51.992;4.498;2023-04-27T07:25:12;102340.13;;;10.32;52.49
60437;BME280;46289;51.992;4.498;2023-04-27T07:27:20;102339.28;;;10.84;52.66
60437;BME280;46289;51.992;4.498;2023-04-27T07:29:28;102344.94;;;10.61;52.44
60437;BME280;46289;51.992;4.498;2023-04-27T07:31:34;102341.00;;;10.87;52.81
60437;BME280;46289;51.992;4.498;2023-04-27T07:33:40;102344.34;;;10.45;51.06
60437;BME280;46289;51.992;4.498;2023-04-27T07:35:45;102341.84;;;10.35;51.18
60437;BME280;46289;51.992;4.498;2023-04-27T07:37:52;102345.16;;;10.47;51.60
60437;BME280;46289;51.992;4.498;2023-04-27T07:40:00;102347.94;;;10.37;51.71
60437;BME280;46289;51.992;4.498;2023-04-27T07:42:15;102347.53;;;10.63;51.34
60437;BME280;46289;51.992;4.498;2023-04-27T07:44:26;102342.31;;;10.61;50.73
60437;BME280;46289;51.992;4.498;2023-04-27T07:46:31;102336.97;;;10.66;51.87
60437;BME280;46289;51.992;4.498;2023-04-27T07:48:38;102334.75;;;10.43;50.84
60437;BME280;46289;51.992;4.498;2023-04-27T07:50:44;102333.22;;;10.23;51.55
60437;BME280;46289;51.992;4.498;2023-04-27T07:52:52;102338.34;;;10.34;51.55
60437;BME280;46289;51.992;4.498;2023-04-27T07:54:58;102333.41;;;10.13;52.30
60437;BME280;46289;51.992;4.498;2023-04-27T07:57:07;102338.66;;;10.14;51.15
60437;BME280;46289;51.992;4.498;2023-04-27T07:59:15;102343.03;;;10.71;50.55
60437;BME280;46289;51.992;4.498;2023-04-27T08:01:20;102344.25;;;10.50;49.50
60437;BME280;46289;51.992;4.498;2023-04-27T08:03:26;102341.38;;;10.65;50.03
60437;BME280;46289;51.992;4.498;2023-04-27T08:05:31;102331.75;;;11.14;49.41
60437;BME280;46289;51.992;4.498;2023-04-27T08:07:37;102331.75;;;11.12;48.78
60437;BME280;46289;51.992;4.498;2023-04-27T08:09:45;102328.16;;;11.18;49.41
60437;BME280;46289;51.992;4.498;2023-04-27T08:11:50;102319.88;;;11.36;48.62
60437;BME280;46289;51.992;4.498;2023-04-27T08:13:56;102314.56;;;11.39;47.70
60437;BME280;46289;51.992;4.498;2023-04-27T08:16:04;102313.63;;;11.42;46.93
60437;BME280;46289;51.992;4.498;2023-04-27T08:18:10;102317.03;;;11.47;47.26
60437;BME280;46289;51.992;4.498;2023-04-27T08:20:14;102323.50;;;11.32;46.83
60437;BME280;46289;51.992;4.498;2023-04-27T08:22:22;102318.41;;;11.23;47.19
60437;BME280;46289;51.992;4.498;2023-04-27T08:24:28;102313.06;;;11.28;47.42
60437;BME280;46289;51.992;4.498;2023-04-27T08:26:33;102319.50;;;11.55;47.11
60437;BME280;46289;51.992;4.498;2023-04-27T08:28:39;102324.09;;;11.89;47.08
60437;BME280;46289;51.992;4.498;2023-04-27T08:30:44;102319.75;;;10.97;48.17
60437;BME280;46289;51.992;4.498;2023-04-27T08:32:52;102322.03;;;11.16;47.59
60437;BME280;46289;51.992;4.498;2023-04-27T08:34:58;102323.31;;;11.40;47.44
60437;BME280;46289;51.992;4.498;2023-04-27T08:37:05;102322.56;;;11.35;46.26
60437;BME280;46289;51.992;4.498;2023-04-27T08:39:10;102327.41;;;11.56;46.31
60437;BME280;46289;51.992;4.498;2023-04-27T08:41:18;102324.47;;;11.70;44.64
60437;BME280;46289;51.992;4.498;2023-04-27T08:43:31;102321.59;;;11.39;44.46
60437;BME280;46289;51.992;4.498;2023-04-27T08:45:37;102318.56;;;11.59;45.58
60437;BME280;46289;51.992;4.498;2023-04-27T08:47:43;102317.25;;;11.80;45.87
60437;BME280;46289;51.992;4.498;2023-04-27T08:49:51;102319.75;;;11.84;45.22
60437;BME280;46289;51.992;4.498;2023-04-27T08:51:56;102313.72;;;11.79;46.59
60437;BME280;46289;51.992;4.498;2023-04-27T08:54:01;102317.31;;;12.16;44.46
60437;BME280;46289;51.992;4.498;2023-04-27T08:56:06;102320.59;;;12.27;44.83
60437;BME280;46289;51.992;4.498;2023-04-27T08:58:12;102321.56;;;12.23;42.93
60437;BME280;46289;51.992;4.498;2023-04-27T09:00:20;102308.28;;;11.89;44.23
60437;BME280;46289;51.992;4.498;2023-04-27T09:02:28;102309.41;;;12.17;44.43
60437;BME280;46289;51.992;4.498;2023-04-27T09:04:36;102305.22;;;12.08;44.11
60437;BME280;46289;51.992;4.498;2023-04-27T09:06:44;102311.00;;;12.24;43.23
60437;BME280;46289;51.992;4.498;2023-04-27T09:08:52;102304.72;;;12.28;43.35
60437;BME280;46289;51.992;4.498;2023-04-27T09:10:57;102305.28;;;12.43;44.30
60437;BME280;46289;51.992;4.498;2023-04-27T09:13:02;102309.81;;;11.99;43.01
60437;BME280;46289;51.992;4.498;2023-04-27T09:15:08;102302.78;;;11.98;42.66
60437;BME280;46289;51.992;4.498;2023-04-27T09:17:13;102308.03;;;12.01;42.80
60437;BME280;46289;51.992;4.498;2023-04-27T09:19:23;102302.84;;;12.34;41.97
60437;BME280;46289;51.992;4.498;2023-04-27T09:21:29;102309.06;;;12.29;43.08
60437;BME280;46289;51.992;4.498;2023-04-27T09:23:38;102304.31;;;12.45;40.80
60437;BME280;46289;51.992;4.498;2023-04-27T09:25:45;102300.44;;;12.24;43.43
60437;BME280;46289;51.992;4.498;2023-04-27T09:27:50;102303.97;;;12.23;43.41
60437;BME280;46289;51.992;4.498;2023-04-27T09:29:55;102304.16;;;12.51;43.79
60437;BME280;46289;51.992;4.498;2023-04-27T09:32:00;102307.06;;;12.41;41.83
60437;BME280;46289;51.992;4.498;2023-04-27T09:34:05;102307.72;;;12.13;42.22
60437;BME280;46289;51.992;4.498;2023-04-27T09:36:10;102320.59;;;12.27;42.88
60437;BME280;46289;51.992;4.498;2023-04-27T09:38:15;102313.38;;;12.35;42.31
60437;BME280;46289;51.992;4.498;2023-04-27T09:40:27;102318.19;;;12.16;43.76
60437;BME280;46289;51.992;4.498;2023-04-27T09:42:33;102306.44;;;12.65;42.95
60437;BME280;46289;51.992;4.498;2023-04-27T09:44:38;102316.78;;;12.73;42.53
60437;BME280;46289;51.992;4.498;2023-04-27T09:46:44;102308.88;;;12.73;43.37
60437;BME280;46289;51.992;4.498;2023-04-27T09:48:50;102318.56;;;12.72;43.34
60437;BME280;46289;51.992;4.498;2023-04-27T09:50:56;102317.47;;;13.14;43.88
60437;BME280;46289;51.992;4.498;2023-04-27T09:53:02;102313.94;;;13.13;42.74
60437;BME280;46289;51.992;4.498;2023-04-27T09:55:09;102300.91;;;13.09;42.82
60437;BME280;46289;51.992;4.498;2023-04-27T09:57:24;102301.22;;;13.29;43.02
60437;BME280;46289;51.992;4.498;2023-04-27T09:59:47;102307.72;;;13.16;43.21
60437;BME280;46289;51.992;4.498;2023-04-27T10:01:59;102311.66;;;13.34;42.94
60437;BME280;46289;51.992;4.498;2023-04-27T10:04:37;102308.19;;;13.32;41.82
60437;BME280;46289;51.992;4.498;2023-04-27T10:06:58;102312.09;;;12.84;42.56
60437;BME280;46289;51.992;4.498;2023-04-27T10:09:03;102298.00;;;13.18;42.26
60437;BME280;46289;51.992;4.498;2023-04-27T10:11:15;102301.06;;;13.35;41.33
60437;BME280;46289;51.992;4.498;2023-04-27T10:13:30;102293.63;;;13.78;41.04
60437;BME280;46289;51.992;4.498;2023-04-27T10:15:38;102296.91;;;13.86;39.83
60437;BME280;46289;51.992;4.498;2023-04-27T10:17:50;102296.22;;;13.50;39.56
60437;BME280;46289;51.992;4.498;2023-04-27T10:20:01;102293.97;;;13.95;40.10
60437;BME280;46289;51.992;4.498;2023-04-27T10:22:08;102285.81;;;13.75;39.07
60437;BME280;46289;51.992;4.498;2023-04-27T10:24:13;102295.16;;;13.57;39.36
60437;BME280;46289;51.992;4.498;2023-04-27T10:26:21;102291.72;;;13.83;38.92
60437;BME280;46289;51.992;4.498;2023-04-27T10:28:37;102292.72;;;14.07;39.46
60437;BME280;46289;51.992;4.498;2023-04-27T10:30:44;102295.59;;;13.99;38.70
60437;BME280;46289;51.992;4.498;2023-04-27T10:32:52;102292.53;;;13.85;38.46
60437;BME280;46289;51.992;4.498;2023-04-27T10:35:02;102289.34;;;14.02;39.58
60437;BME280;46289;51.992;4.498;2023-04-27T10:37:09;102291.91;;;14.05;39.20
60437;BME280;46289;51.992;4.498;2023-04-27T10:39:15;102284.88;;;13.76;38.78
60437;BME280;46289;51.992;4.498;2023-04-27T10:41:20;102279.16;;;14.18;39.32
60437;BME280;46289;51.992;4.498;2023-04-27T10:43:32;102274.19;;;14.09;38.81
60437;BME280;46289;51.992;4.498;2023-04-27T10:45:39;102272.88;;;14.22;39.30
60437;BME280;46289;51.992;4.498;2023-04-27T10:47:44;102274.09;;;14.38;38.96
60437;BME280;46289;51.992;4.498;2023-04-27T10:49:51;102267.50;;;14.50;39.48
60437;BME280;46289;51.992;4.498;2023-04-27T10:51:58;102270.38;;;14.44;37.62
60437;BME280;46289;51.992;4.498;2023-04-27T10:54:05;102265.28;;;14.38;38.70
60437;BME280;46289;51.992;4.498;2023-04-27T10:56:10;102264.47;;;14.87;37.11
60437;BME280;46289;51.992;4.498;2023-04-27T10:58:21;102265.72;;;14.77;36.67
60437;BME280;46289;51.992;4.498;2023-04-27T11:00:48;102263.88;;;14.79;37.74
60437;BME280;46289;51.992;4.498;2023-04-27T11:02:54;102255.06;;;15.04;37.57
60437;BME280;46289;51.992;4.498;2023-04-27T11:04:59;102266.00;;;15.18;36.63
60437;BME280;46289;51.992;4.498;2023-04-27T11:07:09;102261.53;;;14.95;39.09
60437;BME280;46289;51.992;4.498;2023-04-27T11:09:24;102250.31;;;14.88;35.52
60437;BME280;46289;51.992;4.498;2023-04-27T11:11:29;102255.69;;;15.10;36.13